sensor_id;sensor_type;location;lat;lon;timestamp;temperature;humidity
26687;DHT22;14298;50.900;4.648;2023-04-03T00:01:29;0.60;97.10
26687;DHT22;14298;50.900;4.648;2023-04-03T00:03:58;0.60;97.10
26687;DHT22;14298;50.900;4.648;2023-04-03T00:06:27;0.60;97.10
26687;DHT22;14298;50.900;4.648;2023-04-03T00:08:55;0.60;97.10
26687;DHT22;14298;50.900;4.648;2023-04-03T00:11:23;0.60;97.10
26687;DHT22;14298;50.900;4.648;2023-04-03T00:13:52;0.60;97.10
26687;DHT22;14298;50.900;4.648;2023-04-03T00:16:21;0.60;97.10
26687;DHT22;14298;50.900;4.648;2023-04-03T00:18:49;0.60;97.10
26687;DHT22;14298;50.900;4.648;2023-04-03T00:21:17;0.60;97.10
26687;DHT22;14298;50.900;4.648;2023-04-03T00:23:46;0.60;97.10
26687;DHT22;14298;50.900;4.648;2023-04-03T00:26:14;0.60;97.10
26687;DHT22;14298;50.900;4.648;2023-04-03T00:28:42;0.50;97.10
26687;DHT22;14298;50.900;4.648;2023-04-03T00:31:10;0.40;97.10
26687;DHT22;14298;50.900;4.648;2023-04-03T00:33:40;0.40;97.10
26687;DHT22;14298;50.900;4.648;2023-04-03T00:36:10;0.30;97.10
26687;DHT22;14298;50.900;4.648;2023-04-03T00:38:38;0.30;97.10
26687;DHT22;14298;50.900;4.648;2023-04-03T00:41:07;0.20;97.10
26687;DHT22;14298;50.900;4.648;2023-04-03T00:43:36;0.10;97.10
26687;DHT22;14298;50.900;4.648;2023-04-03T00:46:05;0.10;97.10
26687;DHT22;14298;50.900;4.648;2023-04-03T00:48:42;0.10;97.10
26687;DHT22;14298;50.900;4.648;2023-04-03T00:51:14;0.10;97.10
26687;DHT22;14298;50.900;4.648;2023-04-03T00:53:54;0.10;97.10
26687;DHT22;14298;50.900;4.648;2023-04-03T00:56:19;0.10;97.10
26687;DHT22;14298;50.900;4.648;2023-04-03T00:58:58;0.00;97.10
26687;DHT22;14298;50.900;4.648;2023-04-03T01:01:28;0.00;97.10
26687;DHT22;14298;50.900;4.648;2023-04-03T01:03:59;-0.10;97.10
26687;DHT22;14298;50.900;4.648;2023-04-03T01:06:35;0.00;97.10
26687;DHT22;14298;50.900;4.648;2023-04-03T01:09:05;0.00;97.10
26687;DHT22;14298;50.900;4.648;2023-04-03T01:11:33;0.00;97.10
26687;DHT22;14298;50.900;4.648;2023-04-03T01:14:02;0.00;97.10
26687;DHT22;14298;50.900;4.648;2023-04-03T01:16:32;0.10;97.10
26687;DHT22;14298;50.900;4.648;2023-04-03T01:19:01;0.20;97.10
26687;DHT22;14298;50.900;4.648;2023-04-03T01:21:59;0.20;97.10
26687;DHT22;14298;50.900;4.648;2023-04-03T01:24:42;0.30;97.10
26687;DHT22;14298;50.900;4.648;2023-04-03T01:27:11;0.30;97.10
26687;DHT22;14298;50.900;4.648;2023-04-03T01:29:40;0.20;97.10
26687;DHT22;14298;50.900;4.648;2023-04-03T01:32:11;0.10;97.10
26687;DHT22;14298;50.900;4.648;2023-04-03T01:34:39;0.10;97.10
26687;DHT22;14298;50.900;4.648;2023-04-03T01:37:07;0.10;97.10
26687;DHT22;14298;50.900;4.648;2023-04-03T01:39:36;0.10;97.10
26687;DHT22;14298;50.900;4.648;2023-04-03T01:42:04;0.10;97.10
26687;DHT22;14298;50.900;4.648;2023-04-03T01:44:32;0.10;97.10
26687;DHT22;14298;50.900;4.648;2023-04-03T01:47:01;0.00;97.10
26687;DHT22;14298;50.900;4.648;2023-04-03T01:49:29;0.00;97.10
26687;DHT22;14298;50.900;4.648;2023-04-03T01:51:57;0.10;97.10
26687;DHT22;14298;50.900;4.648;2023-04-03T01:54:26;0.10;97.10
26687;DHT22;14298;50.900;4.648;2023-04-03T01:56:54;0.10;97.10
26687;DHT22;14298;50.900;4.648;2023-04-03T01:59:22;0.10;97.10
26687;DHT22;14298;50.900;4.648;2023-04-03T02:01:51;0.00;97.10
26687;DHT22;14298;50.900;4.648;2023-04-03T02:04:19;-0.10;97.10
26687;DHT22;14298;50.900;4.648;2023-04-03T02:06:48;-0.10;97.10
26687;DHT22;14298;50.900;4.648;2023-04-03T02:09:16;0.00;97.10
26687;DHT22;14298;50.900;4.648;2023-04-03T02:11:45;0.00;97.10
26687;DHT22;14298;50.900;4.648;2023-04-03T02:14:13;-0.10;97.10
26687;DHT22;14298;50.900;4.648;2023-04-03T02:16:41;-0.20;97.10
26687;DHT22;14298;50.900;4.648;2023-04-03T02:19:10;-0.20;97.10
26687;DHT22;14298;50.900;4.648;2023-04-03T02:21:38;-0.30;97.10
26687;DHT22;14298;50.900;4.648;2023-04-03T02:24:07;-0.30;97.10
26687;DHT22;14298;50.900;4.648;2023-04-03T02:26:35;-0.30;97.10
26687;DHT22;14298;50.900;4.648;2023-04-03T02:29:04;-0.30;97.10
26687;DHT22;14298;50.900;4.648;2023-04-03T02:31:33;-0.30;97.10
26687;DHT22;14298;50.900;4.648;2023-04-03T02:34:01;-0.40;97.10
26687;DHT22;14298;50.900;4.648;2023-04-03T02:36:29;-0.30;97.10
26687;DHT22;14298;50.900;4.648;2023-04-03T02:38:58;-0.30;97.10
26687;DHT22;14298;50.900;4.648;2023-04-03T02:41:26;-0.30;97.10
26687;DHT22;14298;50.900;4.648;2023-04-03T02:43:56;-0.30;97.10
26687;DHT22;14298;50.900;4.648;2023-04-03T02:46:24;-0.40;97.10
26687;DHT22;14298;50.900;4.648;2023-04-03T02:48:53;-0.30;97.10
26687;DHT22;14298;50.900;4.648;2023-04-03T02:51:21;-0.30;97.10
26687;DHT22;14298;50.900;4.648;2023-04-03T02:53:50;-0.20;97.10
26687;DHT22;14298;50.900;4.648;2023-04-03T02:56:18;-0.20;97.10
26687;DHT22;14298;50.900;4.648;2023-04-03T02:58:48;-0.30;97.10
26687;DHT22;14298;50.900;4.648;2023-04-03T03:01:16;-0.30;97.10
26687;DHT22;14298;50.900;4.648;2023-04-03T03:03:45;-0.30;97.10
26687;DHT22;14298;50.900;4.648;2023-04-03T03:06:15;-0.20;97.10
26687;DHT22;14298;50.900;4.648;2023-04-03T03:08:44;-0.20;97.10
26687;DHT22;14298;50.900;4.648;2023-04-03T03:11:12;-0.20;97.10
26687;DHT22;14298;50.900;4.648;2023-04-03T03:13:41;-0.20;97.10
26687;DHT22;14298;50.900;4.648;2023-04-03T03:16:10;-0.30;97.10
26687;DHT22;14298;50.900;4.648;2023-04-03T03:18:38;-0.40;97.10
26687;DHT22;14298;50.900;4.648;2023-04-03T03:21:08;-0.40;97.10
26687;DHT22;14298;50.900;4.648;2023-04-03T03:23:38;-0.40;97.10
26687;DHT22;14298;50.900;4.648;2023-04-03T03:26:08;-0.40;97.10
26687;DHT22;14298;50.900;4.648;2023-04-03T03:28:38;-0.50;97.10
26687;DHT22;14298;50.900;4.648;2023-04-03T03:31:08;-0.50;97.10
26687;DHT22;14298;50.900;4.648;2023-04-03T03:33:37;-0.50;97.10
26687;DHT22;14298;50.900;4.648;2023-04-03T03:36:05;-0.60;97.10
26687;DHT22;14298;50.900;4.648;2023-04-03T03:38:34;-0.60;97.10
26687;DHT22;14298;50.900;4.648;2023-04-03T03:41:02;-0.60;97.10
26687;DHT22;14298;50.900;4.648;2023-04-03T03:43:31;-0.50;97.10
26687;DHT22;14298;50.900;4.648;2023-04-03T03:45:59;-0.40;97.10
26687;DHT22;14298;50.900;4.648;2023-04-03T03:48:27;-0.40;97.10
26687;DHT22;14298;50.900;4.648;2023-04-03T03:50:56;-0.40;97.10
26687;DHT22;14298;50.900;4.648;2023-04-03T03:53:24;-0.50;97.10
26687;DHT22;14298;50.900;4.648;2023-04-03T03:55:53;-0.50;97.10
26687;DHT22;14298;50.900;4.648;2023-04-03T03:58:21;-0.60;97.10
26687;DHT22;14298;50.900;4.648;2023-04-03T04:00:55;-0.60;97.10
26687;DHT22;14298;50.900;4.648;2023-04-03T04:03:24;-0.50;97.10
26687;DHT22;14298;50.900;4.648;2023-04-03T04:05:52;-0.40;97.10
26687;DHT22;14298;50.900;4.648;2023-04-03T04:08:21;-0.40;97.10
26687;DHT22;14298;50.900;4.648;2023-04-03T04:10:49;-0.50;97.10
26687;DHT22;14298;50.900;4.648;2023-04-03T04:13:17;-0.60;97.10
26687;DHT22;14298;50.900;4.648;2023-04-03T04:15:45;-0.70;97.10
26687;DHT22;14298;50.900;4.648;2023-04-03T04:18:14;-0.80;97.10
26687;DHT22;14298;50.900;4.648;2023-04-03T04:20:44;-0.90;97.10
26687;DHT22;14298;50.900;4.648;2023-04-03T04:23:12;-1.00;97.10
26687;DHT22;14298;50.900;4.648;2023-04-03T04:25:41;-1.00;97.10
26687;DHT22;14298;50.900;4.648;2023-04-03T04:28:09;-1.00;97.10
26687;DHT22;14298;50.900;4.648;2023-04-03T04:30:37;-1.00;97.10
26687;DHT22;14298;50.900;4.648;2023-04-03T04:33:06;-0.90;97.10
26687;DHT22;14298;50.900;4.648;2023-04-03T04:35:34;-1.00;97.10
26687;DHT22;14298;50.900;4.648;2023-04-03T04:38:03;-1.00;97.10
26687;DHT22;14298;50.900;4.648;2023-04-03T04:40:32;-1.00;97.10
26687;DHT22;14298;50.900;4.648;2023-04-03T04:43:00;-1.10;97.10
26687;DHT22;14298;50.900;4.648;2023-04-03T04:45:28;-1.10;97.10
26687;DHT22;14298;50.900;4.648;2023-04-03T04:47:57;-1.10;97.10
26687;DHT22;14298;50.900;4.648;2023-04-03T04:50:25;-1.10;97.10
26687;DHT22;14298;50.900;4.648;2023-04-03T04:52:53;-1.10;97.10
26687;DHT22;14298;50.900;4.648;2023-04-03T04:55:22;-1.10;97.10
26687;DHT22;14298;50.900;4.648;2023-04-03T04:57:50;-1.10;97.10
26687;DHT22;14298;50.900;4.648;2023-04-03T05:00:19;-1.10;97.10
26687;DHT22;14298;50.900;4.648;2023-04-03T05:02:48;-1.10;97.10
26687;DHT22;14298;50.900;4.648;2023-04-03T05:05:16;-1.10;97.10
26687;DHT22;14298;50.900;4.648;2023-04-03T05:07:45;-1.00;97.10
26687;DHT22;14298;50.900;4.648;2023-04-03T05:10:13;-1.00;97.10
26687;DHT22;14298;50.900;4.648;2023-04-03T05:12:41;-1.00;97.10
26687;DHT22;14298;50.900;4.648;2023-04-03T05:15:10;-1.00;97.10
26687;DHT22;14298;50.900;4.648;2023-04-03T05:17:38;-1.00;97.10
26687;DHT22;14298;50.900;4.648;2023-04-03T05:20:07;-1.00;97.10
26687;DHT22;14298;50.900;4.648;2023-04-03T05:22:36;-1.10;97.10
26687;DHT22;14298;50.900;4.648;2023-04-03T05:25:05;-1.00;97.10
26687;DHT22;14298;50.900;4.648;2023-04-03T05:27:34;-1.00;97.10
26687;DHT22;14298;50.900;4.648;2023-04-03T05:30:03;-1.00;97.10
26687;DHT22;14298;50.900;4.648;2023-04-03T05:32:32;-1.00;97.10
26687;DHT22;14298;50.900;4.648;2023-04-03T05:35:00;-1.00;97.10
26687;DHT22;14298;50.900;4.648;2023-04-03T05:37:29;-0.90;97.10
26687;DHT22;14298;50.900;4.648;2023-04-03T05:39:57;-0.90;97.10
26687;DHT22;14298;50.900;4.648;2023-04-03T05:42:25;-0.90;97.10
26687;DHT22;14298;50.900;4.648;2023-04-03T05:44:54;-0.90;97.10
26687;DHT22;14298;50.900;4.648;2023-04-03T05:47:22;-0.90;97.10
26687;DHT22;14298;50.900;4.648;2023-04-03T05:49:51;-0.80;97.10
26687;DHT22;14298;50.900;4.648;2023-04-03T05:52:27;-0.70;97.10
26687;DHT22;14298;50.900;4.648;2023-04-03T05:54:56;-0.60;97.10
26687;DHT22;14298;50.900;4.648;2023-04-03T05:57:25;-0.40;97.10
26687;DHT22;14298;50.900;4.648;2023-04-03T05:59:53;-0.30;97.10
26687;DHT22;14298;50.900;4.648;2023-04-03T06:02:23;-0.30;97.10
26687;DHT22;14298;50.900;4.648;2023-04-03T06:04:52;-0.20;97.10
26687;DHT22;14298;50.900;4.648;2023-04-03T06:07:22;0.10;97.10
26687;DHT22;14298;50.900;4.648;2023-04-03T06:09:53;0.20;97.10
26687;DHT22;14298;50.900;4.648;2023-04-03T06:12:23;0.30;97.10
26687;DHT22;14298;50.900;4.648;2023-04-03T06:14:52;0.30;97.10
26687;DHT22;14298;50.900;4.648;2023-04-03T06:17:20;0.30;97.10
26687;DHT22;14298;50.900;4.648;2023-04-03T06:19:49;0.30;97.10
26687;DHT22;14298;50.900;4.648;2023-04-03T06:22:17;0.40;97.10
26687;DHT22;14298;50.900;4.648;2023-04-03T06:24:45;0.60;97.10
26687;DHT22;14298;50.900;4.648;2023-04-03T06:27:14;0.60;97.10
26687;DHT22;14298;50.900;4.648;2023-04-03T06:29:42;0.70;97.10
26687;DHT22;14298;50.900;4.648;2023-04-03T06:32:12;0.80;97.10
26687;DHT22;14298;50.900;4.648;2023-04-03T06:34:41;0.90;97.10
26687;DHT22;14298;50.900;4.648;2023-04-03T06:37:20;1.10;97.10
26687;DHT22;14298;50.900;4.648;2023-04-03T06:39:49;1.30;97.10
26687;DHT22;14298;50.900;4.648;2023-04-03T06:42:17;1.60;97.10
26687;DHT22;14298;50.900;4.648;2023-04-03T06:44:45;1.70;97.10
26687;DHT22;14298;50.900;4.648;2023-04-03T06:47:15;1.80;97.10
26687;DHT22;14298;50.900;4.648;2023-04-03T06:49:44;2.00;97.10
26687;DHT22;14298;50.900;4.648;2023-04-03T06:52:12;2.10;97.10
26687;DHT22;14298;50.900;4.648;2023-04-03T06:54:41;2.20;97.10
26687;DHT22;14298;50.900;4.648;2023-04-03T06:57:09;2.40;97.10
26687;DHT22;14298;50.900;4.648;2023-04-03T06:59:38;2.70;97.10
26687;DHT22;14298;50.900;4.648;2023-04-03T07:02:09;3.00;97.10
26687;DHT22;14298;50.900;4.648;2023-04-03T07:04:38;3.30;97.10
26687;DHT22;14298;50.900;4.648;2023-04-03T07:07:06;3.60;97.10
26687;DHT22;14298;50.900;4.648;2023-04-03T07:09:35;3.70;97.10
26687;DHT22;14298;50.900;4.648;2023-04-03T07:12:03;3.80;97.10
26687;DHT22;14298;50.900;4.648;2023-04-03T07:14:31;3.90;97.10
26687;DHT22;14298;50.900;4.648;2023-04-03T07:17:00;4.10;97.10
26687;DHT22;14298;50.900;4.648;2023-04-03T07:19:28;4.10;97.10
26687;DHT22;14298;50.900;4.648;2023-04-03T07:21:57;4.40;97.10
26687;DHT22;14298;50.900;4.648;2023-04-03T07:24:25;4.30;97.10
26687;DHT22;14298;50.900;4.648;2023-04-03T07:26:53;4.30;97.10
26687;DHT22;14298;50.900;4.648;2023-04-03T07:29:22;4.40;97.10
26687;DHT22;14298;50.900;4.648;2023-04-03T07:31:51;4.50;97.10
26687;DHT22;14298;50.900;4.648;2023-04-03T07:34:19;4.60;97.10
26687;DHT22;14298;50.900;4.648;2023-04-03T07:36:48;4.80;97.10
26687;DHT22;14298;50.900;4.648;2023-04-03T07:39:16;5.10;97.10
26687;DHT22;14298;50.900;4.648;2023-04-03T07:41:45;5.20;97.10
26687;DHT22;14298;50.900;4.648;2023-04-03T07:44:13;5.50;97.10
26687;DHT22;14298;50.900;4.648;2023-04-03T07:46:42;5.70;97.10
26687;DHT22;14298;50.900;4.648;2023-04-03T07:49:10;5.70;97.10
26687;DHT22;14298;50.900;4.648;2023-04-03T07:51:39;5.80;97.10
26687;DHT22;14298;50.900;4.648;2023-04-03T07:54:08;6.00;97.10
26687;DHT22;14298;50.900;4.648;2023-04-03T07:56:36;6.10;97.10
26687;DHT22;14298;50.900;4.648;2023-04-03T07:59:04;6.50;97.10
26687;DHT22;14298;50.900;4.648;2023-04-03T08:01:34;6.80;97.10
26687;DHT22;14298;50.900;4.648;2023-04-03T08:04:02;6.60;97.10
26687;DHT22;14298;50.900;4.648;2023-04-03T08:06:31;6.80;97.10
26687;DHT22;14298;50.900;4.648;2023-04-03T08:09:03;7.10;97.10
26687;DHT22;14298;50.900;4.648;2023-04-03T08:11:31;7.10;97.10
26687;DHT22;14298;50.900;4.648;2023-04-03T08:13:59;7.30;97.10
26687;DHT22;14298;50.900;4.648;2023-04-03T08:16:29;7.50;97.10
26687;DHT22;14298;50.900;4.648;2023-04-03T08:18:58;7.50;97.10
26687;DHT22;14298;50.900;4.648;2023-04-03T08:21:26;7.70;97.10
26687;DHT22;14298;50.900;4.648;2023-04-03T08:23:55;8.10;97.10
26687;DHT22;14298;50.900;4.648;2023-04-03T08:26:23;8.10;97.10
26687;DHT22;14298;50.900;4.648;2023-04-03T08:28:53;7.90;97.10
26687;DHT22;14298;50.900;4.648;2023-04-03T08:31:21;7.80;97.10
26687;DHT22;14298;50.900;4.648;2023-04-03T08:33:50;8.40;97.10
26687;DHT22;14298;50.900;4.648;2023-04-03T08:36:24;8.90;97.10
26687;DHT22;14298;50.900;4.648;2023-04-03T08:38:54;9.20;97.10
26687;DHT22;14298;50.900;4.648;2023-04-03T08:41:37;9.20;97.10
26687;DHT22;14298;50.900;4.648;2023-04-03T08:47:24;9.10;97.10
26687;DHT22;14298;50.900;4.648;2023-04-03T08:50:17;9.00;97.10
26687;DHT22;14298;50.900;4.648;2023-04-03T08:52:45;9.30;97.10
26687;DHT22;14298;50.900;4.648;2023-04-03T08:55:28;10.00;97.10
26687;DHT22;14298;50.900;4.648;2023-04-03T09:03:18;10.40;97.10
26687;DHT22;14298;50.900;4.648;2023-04-03T09:06:10;10.20;97.10
26687;DHT22;14298;50.900;4.648;2023-04-03T09:11:25;10.50;97.10
26687;DHT22;14298;50.900;4.648;2023-04-03T09:17:09;10.30;97.10
26687;DHT22;14298;50.900;4.648;2023-04-03T09:19:36;10.10;97.10
26687;DHT22;14298;50.900;4.648;2023-04-03T09:22:27;11.00;97.10
26687;DHT22;14298;50.900;4.648;2023-04-03T09:25:32;10.90;97.10
26687;DHT22;14298;50.900;4.648;2023-04-03T09:27:57;11.30;97.10
26687;DHT22;14298;50.900;4.648;2023-04-03T09:30:27;11.20;97.10
26687;DHT22;14298;50.900;4.648;2023-04-03T09:32:57;11.20;97.10
26687;DHT22;14298;50.900;4.648;2023-04-03T09:35:30;11.60;97.10
26687;DHT22;14298;50.900;4.648;2023-04-03T09:38:23;11.80;97.10
26687;DHT22;14298;50.900;4.648;2023-04-03T09:40:36;12.30;97.10
26687;DHT22;14298;50.900;4.648;2023-04-03T09:43:26;11.00;97.10
26687;DHT22;14298;50.900;4.648;2023-04-03T09:45:56;10.80;97.10
26687;DHT22;14298;50.900;4.648;2023-04-03T09:48:25;11.00;97.10
26687;DHT22;14298;50.900;4.648;2023-04-03T09:50:57;11.60;97.10
26687;DHT22;14298;50.900;4.648;2023-04-03T09:53:41;11.70;97.10
26687;DHT22;14298;50.900;4.648;2023-04-03T09:56:19;10.90;97.10
26687;DHT22;14298;50.900;4.648;2023-04-03T09:59:07;11.10;97.10
26687;DHT22;14298;50.900;4.648;2023-04-03T10:01:38;11.00;97.10
26687;DHT22;14298;50.900;4.648;2023-04-03T10:04:12;11.90;97.10
26687;DHT22;14298;50.900;4.648;2023-04-03T10:06:44;12.00;97.10
26687;DHT22;14298;50.900;4.648;2023-04-03T10:09:26;12.10;97.10
26687;DHT22;14298;50.900;4.648;2023-04-03T10:12:03;12.70;97.10
26687;DHT22;14298;50.900;4.648;2023-04-03T10:14:38;12.90;97.10
26687;DHT22;14298;50.900;4.648;2023-04-03T10:17:18;10.60;97.10
26687;DHT22;14298;50.900;4.648;2023-04-03T10:19:53;9.70;97.10
26687;DHT22;14298;50.900;4.648;2023-04-03T10:22:46;9.00;97.10
26687;DHT22;14298;50.900;4.648;2023-04-03T10:25:35;8.60;97.10
26687;DHT22;14298;50.900;4.648;2023-04-03T10:28:09;8.30;97.10
26687;DHT22;14298;50.900;4.648;2023-04-03T10:38:59;8.40;97.10
26687;DHT22;14298;50.900;4.648;2023-04-03T10:47:24;8.50;97.10
26687;DHT22;14298;50.900;4.648;2023-04-03T10:52:37;8.70;97.10
26687;DHT22;14298;50.900;4.648;2023-04-03T11:01:07;8.70;97.10
26687;DHT22;14298;50.900;4.648;2023-04-03T11:03:43;8.70;97.10
26687;DHT22;14298;50.900;4.648;2023-04-03T11:06:13;8.90;97.10
26687;DHT22;14298;50.900;4.648;2023-04-03T11:09:10;9.00;97.10
26687;DHT22;14298;50.900;4.648;2023-04-03T11:11:29;8.80;97.10
26687;DHT22;14298;50.900;4.648;2023-04-03T11:14:01;8.90;97.10
26687;DHT22;14298;50.900;4.648;2023-04-03T11:16:37;9.20;97.10
26687;DHT22;14298;50.900;4.648;2023-04-03T11:21:50;8.90;97.10
26687;DHT22;14298;50.900;4.648;2023-04-03T11:24:16;8.70;97.10
26687;DHT22;14298;50.900;4.648;2023-04-03T11:26:45;8.80;97.10
26687;DHT22;14298;50.900;4.648;2023-04-03T11:29:18;8.90;97.10
26687;DHT22;14298;50.900;4.648;2023-04-03T11:31:59;8.80;97.10
26687;DHT22;14298;50.900;4.648;2023-04-03T11:34:56;8.70;97.10
26687;DHT22;14298;50.900;4.648;2023-04-03T11:37:41;8.70;97.10
26687;DHT22;14298;50.900;4.648;2023-04-03T11:39:52;9.00;97.10
26687;DHT22;14298;50.900;4.648;2023-04-03T11:42:33;9.20;97.10
26687;DHT22;14298;50.900;4.648;2023-04-03T11:45:10;9.40;97.10
26687;DHT22;14298;50.900;4.648;2023-04-03T11:47:44;9.00;97.10
26687;DHT22;14298;50.900;4.648;2023-04-03T11:58:22;9.10;97.10
26687;DHT22;14298;50.900;4.648;2023-04-03T12:03:30;9.10;97.10
26687;DHT22;14298;50.900;4.648;2023-04-03T12:08:44;9.30;97.10
26687;DHT22;14298;50.900;4.648;2023-04-03T12:11:15;9.20;97.10
26687;DHT22;14298;50.900;4.648;2023-04-03T12:16:46;9.20;97.10
26687;DHT22;14298;50.900;4.648;2023-04-03T12:19:35;9.20;97.10
26687;DHT22;14298;50.900;4.648;2023-04-03T12:22:17;9.10;97.10
26687;DHT22;14298;50.900;4.648;2023-04-03T12:24:50;9.10;97.10
26687;DHT22;14298;50.900;4.648;2023-04-03T12:27:32;9.20;97.10
26687;DHT22;14298;50.900;4.648;2023-04-03T12:32:45;9.60;97.10
26687;DHT22;14298;50.900;4.648;2023-04-03T12:46:34;9.50;97.10
26687;DHT22;14298;50.900;4.648;2023-04-03T12:48:59;9.50;97.10
26687;DHT22;14298;50.900;4.648;2023-04-03T12:51:42;9.30;97.10
26687;DHT22;14298;50.900;4.648;2023-04-03T12:54:16;9.50;97.10
26687;DHT22;14298;50.900;4.648;2023-04-03T12:56:46;9.40;97.10
26687;DHT22;14298;50.900;4.648;2023-04-03T12:59:18;9.30;97.10
26687;DHT22;14298;50.900;4.648;2023-04-03T13:02:00;9.30;97.10
26687;DHT22;14298;50.900;4.648;2023-04-03T13:04:31;9.20;97.10
26687;DHT22;14298;50.900;4.648;2023-04-03T13:06:59;9.30;97.10
26687;DHT22;14298;50.900;4.648;2023-04-03T13:09:30;9.50;97.10
26687;DHT22;14298;50.900;4.648;2023-04-03T13:12:03;9.30;97.10
26687;DHT22;14298;50.900;4.648;2023-04-03T13:14:31;9.50;97.10
26687;DHT22;14298;50.900;4.648;2023-04-03T13:17:09;9.50;97.10
26687;DHT22;14298;50.900;4.648;2023-04-03T13:19:34;9.40;97.10
26687;DHT22;14298;50.900;4.648;2023-04-03T13:22:05;9.40;97.10
26687;DHT22;14298;50.900;4.648;2023-04-03T13:24:36;9.40;97.10
26687;DHT22;14298;50.900;4.648;2023-04-03T13:27:06;9.30;97.10
26687;DHT22;14298;50.900;4.648;2023-04-03T13:29:36;9.60;97.10
26687;DHT22;14298;50.900;4.648;2023-04-03T13:32:06;9.90;97.10
26687;DHT22;14298;50.900;4.648;2023-04-03T13:34:43;9.70;97.10
26687;DHT22;14298;50.900;4.648;2023-04-03T13:37:23;9.50;97.10
26687;DHT22;14298;50.900;4.648;2023-04-03T13:40:02;9.60;97.10
26687;DHT22;14298;50.900;4.648;2023-04-03T13:42:31;9.70;97.10
26687;DHT22;14298;50.900;4.648;2023-04-03T13:45:21;9.70;97.10
26687;DHT22;14298;50.900;4.648;2023-04-03T13:47:52;9.50;97.10
26687;DHT22;14298;50.900;4.648;2023-04-03T13:50:24;9.70;97.10
26687;DHT22;14298;50.900;4.648;2023-04-03T13:53:00;9.80;97.10
26687;DHT22;14298;50.900;4.648;2023-04-03T13:58:23;9.80;97.10
26687;DHT22;14298;50.900;4.648;2023-04-03T14:03:32;9.80;97.10
26687;DHT22;14298;50.900;4.648;2023-04-03T14:06:01;9.80;97.10
26687;DHT22;14298;50.900;4.648;2023-04-03T14:08:30;9.80;97.10
26687;DHT22;14298;50.900;4.648;2023-04-03T14:10:59;9.80;97.10
26687;DHT22;14298;50.900;4.648;2023-04-03T14:13:29;9.90;97.10
26687;DHT22;14298;50.900;4.648;2023-04-03T14:15:58;9.90;97.10
26687;DHT22;14298;50.900;4.648;2023-04-03T14:18:27;9.70;97.10
26687;DHT22;14298;50.900;4.648;2023-04-03T14:20:56;9.80;97.10
26687;DHT22;14298;50.900;4.648;2023-04-03T14:23:24;10.10;97.10
26687;DHT22;14298;50.900;4.648;2023-04-03T14:25:52;10.10;97.10
26687;DHT22;14298;50.900;4.648;2023-04-03T14:28:22;10.00;97.10
26687;DHT22;14298;50.900;4.648;2023-04-03T14:30:51;10.10;97.10
26687;DHT22;14298;50.900;4.648;2023-04-03T14:33:21;10.10;97.10
26687;DHT22;14298;50.900;4.648;2023-04-03T14:35:50;10.10;97.10
26687;DHT22;14298;50.900;4.648;2023-04-03T14:38:26;10.10;97.10
26687;DHT22;14298;50.900;4.648;2023-04-03T14:40:50;10.00;97.10
26687;DHT22;14298;50.900;4.648;2023-04-03T14:43:19;10.00;97.10
26687;DHT22;14298;50.900;4.648;2023-04-03T14:45:49;9.90;97.10
26687;DHT22;14298;50.900;4.648;2023-04-03T14:48:23;9.80;97.10
26687;DHT22;14298;50.900;4.648;2023-04-03T14:50:53;9.90;97.10
26687;DHT22;14298;50.900;4.648;2023-04-03T14:53:21;9.90;97.10
26687;DHT22;14298;50.900;4.648;2023-04-03T14:55:52;10.10;97.10
26687;DHT22;14298;50.900;4.648;2023-04-03T14:58:21;10.00;97.10
26687;DHT22;14298;50.900;4.648;2023-04-03T15:00:49;10.00;97.10
26687;DHT22;14298;50.900;4.648;2023-04-03T15:03:20;9.90;97.10
26687;DHT22;14298;50.900;4.648;2023-04-03T15:05:49;9.80;97.10
26687;DHT22;14298;50.900;4.648;2023-04-03T15:08:27;9.80;97.10
26687;DHT22;14298;50.900;4.648;2023-04-03T15:10:52;9.90;97.10
26687;DHT22;14298;50.900;4.648;2023-04-03T15:13:23;10.00;97.10
26687;DHT22;14298;50.900;4.648;2023-04-03T15:15:52;9.90;97.10
26687;DHT22;14298;50.900;4.648;2023-04-03T15:18:23;10.00;97.10
26687;DHT22;14298;50.900;4.648;2023-04-03T15:20:54;9.90;97.10
26687;DHT22;14298;50.900;4.648;2023-04-03T15:23:22;9.90;97.10
26687;DHT22;14298;50.900;4.648;2023-04-03T15:25:53;10.00;97.10
26687;DHT22;14298;50.900;4.648;2023-04-03T15:28:37;9.90;97.10
26687;DHT22;14298;50.900;4.648;2023-04-03T15:31:05;9.90;97.10
26687;DHT22;14298;50.900;4.648;2023-04-03T15:33:35;9.90;97.10
26687;DHT22;14298;50.900;4.648;2023-04-03T15:36:04;10.00;97.10
26687;DHT22;14298;50.900;4.648;2023-04-03T15:38:33;10.00;97.10
26687;DHT22;14298;50.900;4.648;2023-04-03T15:41:02;9.90;97.10
26687;DHT22;14298;50.900;4.648;2023-04-03T15:43:30;9.80;97.10
26687;DHT22;14298;50.900;4.648;2023-04-03T15:46:01;9.80;97.10
26687;DHT22;14298;50.900;4.648;2023-04-03T15:48:30;9.80;97.10
26687;DHT22;14298;50.900;4.648;2023-04-03T15:51:00;9.80;97.10
26687;DHT22;14298;50.900;4.648;2023-04-03T15:53:28;9.90;97.10
26687;DHT22;14298;50.900;4.648;2023-04-03T15:55:57;9.80;97.10
26687;DHT22;14298;50.900;4.648;2023-04-03T15:58:25;9.90;97.10
26687;DHT22;14298;50.900;4.648;2023-04-03T16:00:53;9.80;97.10
26687;DHT22;14298;50.900;4.648;2023-04-03T16:03:22;9.70;97.10
26687;DHT22;14298;50.900;4.648;2023-04-03T16:05:51;9.70;97.10
26687;DHT22;14298;50.900;4.648;2023-04-03T16:08:20;9.70;97.10
26687;DHT22;14298;50.900;4.648;2023-04-03T16:10:49;9.80;97.10
26687;DHT22;14298;50.900;4.648;2023-04-03T16:13:17;9.80;97.10
26687;DHT22;14298;50.900;4.648;2023-04-03T16:15:46;9.80;97.10
26687;DHT22;14298;50.900;4.648;2023-04-03T16:18:16;9.90;97.10
26687;DHT22;14298;50.900;4.648;2023-04-03T16:20:45;9.80;97.10
26687;DHT22;14298;50.900;4.648;2023-04-03T16:23:14;9.80;97.10
26687;DHT22;14298;50.900;4.648;2023-04-03T16:25:42;9.80;97.10
26687;DHT22;14298;50.900;4.648;2023-04-03T16:28:13;9.60;97.10
26687;DHT22;14298;50.900;4.648;2023-04-03T16:30:43;9.60;97.10
26687;DHT22;14298;50.900;4.648;2023-04-03T16:33:12;9.70;97.10
26687;DHT22;14298;50.900;4.648;2023-04-03T16:35:41;9.70;97.10
26687;DHT22;14298;50.900;4.648;2023-04-03T16:38:10;9.70;97.10
26687;DHT22;14298;50.900;4.648;2023-04-03T16:40:39;9.70;97.10
26687;DHT22;14298;50.900;4.648;2023-04-03T16:43:07;9.70;97.10
26687;DHT22;14298;50.900;4.648;2023-04-03T16:45:36;9.60;97.10
26687;DHT22;14298;50.900;4.648;2023-04-03T16:48:05;9.70;97.10
26687;DHT22;14298;50.900;4.648;2023-04-03T16:50:33;9.70;97.10
26687;DHT22;14298;50.900;4.648;2023-04-03T16:53:02;9.60;97.10
26687;DHT22;14298;50.900;4.648;2023-04-03T16:55:30;9.40;97.10
26687;DHT22;14298;50.900;4.648;2023-04-03T16:57:59;9.40;97.10
26687;DHT22;14298;50.900;4.648;2023-04-03T17:00:31;9.40;97.10
26687;DHT22;14298;50.900;4.648;2023-04-03T17:03:01;9.30;97.10
26687;DHT22;14298;50.900;4.648;2023-04-03T17:05:29;9.30;97.10
26687;DHT22;14298;50.900;4.648;2023-04-03T17:07:57;9.20;97.10
26687;DHT22;14298;50.900;4.648;2023-04-03T17:10:26;9.20;97.10
26687;DHT22;14298;50.900;4.648;2023-04-03T17:12:54;9.20;97.10
26687;DHT22;14298;50.900;4.648;2023-04-03T17:15:23;9.20;97.10
26687;DHT22;14298;50.900;4.648;2023-04-03T17:17:53;9.10;97.10